sensor_id;sensor_type;location;lat;lon;timestamp;P1;durP1;ratioP1;P2;durP2;ratioP2
1545;SDS011;766;51.502;9.752;2022-09-28T00:01:13;5.10;;;3.17;;
1545;SDS011;766;51.502;9.752;2022-09-28T00:03:43;5.43;;;2.78;;
1545;SDS011;766;51.502;9.752;2022-09-28T00:06:13;5.28;;;3.10;;
1545;SDS011;766;51.502;9.752;2022-09-28T00:08:43;5.43;;;3.40;;
1545;SDS011;766;51.502;9.752;2022-09-28T00:11:13;3.65;;;2.58;;
1545;SDS011;766;51.502;9.752;2022-09-28T00:13:41;7.13;;;2.60;;
1545;SDS011;766;51.502;9.752;2022-09-28T00:16:12;5.50;;;2.30;;
1545;SDS011;766;51.502;9.752;2022-09-28T00:18:42;3.45;;;2.45;;
1545;SDS011;766;51.502;9.752;2022-09-28T00:21:11;4.13;;;2.50;;
1545;SDS011;766;51.502;9.752;2022-09-28T00:23:41;5.53;;;2.00;;
1545;SDS011;766;51.502;9.752;2022-09-28T00:26:26;7.15;;;2.60;;
1545;SDS011;766;51.502;9.752;2022-09-28T00:28:55;5.78;;;2.22;;
1545;SDS011;766;51.502;9.752;2022-09-28T00:31:25;3.38;;;2.08;;
1545;SDS011;766;51.502;9.752;2022-09-28T00:33:55;8.75;;;2.53;;
1545;SDS011;766;51.502;9.752;2022-09-28T00:36:23;4.30;;;2.40;;
1545;SDS011;766;51.502;9.752;2022-09-28T00:38:53;6.18;;;2.10;;
1545;SDS011;766;51.502;9.752;2022-09-28T00:41:24;6.15;;;2.05;;
1545;SDS011;766;51.502;9.752;2022-09-28T00:46:59;5.28;;;2.28;;
1545;SDS011;766;51.502;9.752;2022-09-28T00:49:33;2.47;;;2.10;;
1545;SDS011;766;51.502;9.752;2022-09-28T00:52:11;12.10;;;2.60;;
1545;SDS011;766;51.502;9.752;2022-09-28T00:54:43;6.95;;;2.60;;
1545;SDS011;766;51.502;9.752;2022-09-28T00:57:27;3.60;;;2.25;;
1545;SDS011;766;51.502;9.752;2022-09-28T00:59:57;6.38;;;2.80;;
1545;SDS011;766;51.502;9.752;2022-09-28T01:02:33;7.53;;;2.35;;
1545;SDS011;766;51.502;9.752;2022-09-28T01:05:07;6.45;;;2.85;;
1545;SDS011;766;51.502;9.752;2022-09-28T01:07:36;6.15;;;2.92;;
1545;SDS011;766;51.502;9.752;2022-09-28T01:10:05;5.82;;;2.20;;
1545;SDS011;766;51.502;9.752;2022-09-28T01:12:36;5.30;;;2.47;;
1545;SDS011;766;51.502;9.752;2022-09-28T01:15:04;3.28;;;2.28;;
1545;SDS011;766;51.502;9.752;2022-09-28T01:17:36;3.28;;;2.40;;
1545;SDS011;766;51.502;9.752;2022-09-28T01:20:30;5.80;;;2.92;;
1545;SDS011;766;51.502;9.752;2022-09-28T01:29:30;5.63;;;3.03;;
1545;SDS011;766;51.502;9.752;2022-09-28T01:32:18;5.60;;;2.72;;
1545;SDS011;766;51.502;9.752;2022-09-28T01:34:57;7.30;;;3.10;;
1545;SDS011;766;51.502;9.752;2022-09-28T01:37:30;6.50;;;2.92;;
1545;SDS011;766;51.502;9.752;2022-09-28T01:40:07;6.65;;;3.00;;
1545;SDS011;766;51.502;9.752;2022-09-28T01:42:40;8.55;;;3.38;;
1545;SDS011;766;51.502;9.752;2022-09-28T01:45:14;3.58;;;3.00;;
1545;SDS011;766;51.502;9.752;2022-09-28T08:12:17;10.98;;;5.80;;
1545;SDS011;766;51.502;9.752;2022-09-28T08:14:46;7.97;;;5.35;;
1545;SDS011;766;51.502;9.752;2022-09-28T08:17:16;9.63;;;6.07;;
1545;SDS011;766;51.502;9.752;2022-09-28T08:19:44;8.18;;;4.90;;
1545;SDS011;766;51.502;9.752;2022-09-28T08:22:30;10.68;;;3.88;;
1545;SDS011;766;51.502;9.752;2022-09-28T08:24:59;5.85;;;3.58;;
1545;SDS011;766;51.502;9.752;2022-09-28T08:27:28;4.35;;;3.47;;
1545;SDS011;766;51.502;9.752;2022-09-28T08:29:57;6.82;;;3.42;;
1545;SDS011;766;51.502;9.752;2022-09-28T08:32:25;4.32;;;3.35;;
1545;SDS011;766;51.502;9.752;2022-09-28T08:34:55;6.20;;;3.55;;
1545;SDS011;766;51.502;9.752;2022-09-28T08:37:25;7.63;;;4.43;;
1545;SDS011;766;51.502;9.752;2022-09-28T08:39:54;5.22;;;3.80;;
1545;SDS011;766;51.502;9.752;2022-09-28T08:42:28;5.80;;;3.55;;
1545;SDS011;766;51.502;9.752;2022-09-28T08:45:06;5.60;;;3.63;;
1545;SDS011;766;51.502;9.752;2022-09-28T08:47:39;9.48;;;3.90;;
1545;SDS011;766;51.502;9.752;2022-09-28T08:50:44;8.02;;;5.05;;
1545;SDS011;766;51.502;9.752;2022-09-28T08:53:18;5.57;;;4.25;;
1545;SDS011;766;51.502;9.752;2022-09-28T08:56:05;8.75;;;4.82;;
1545;SDS011;766;51.502;9.752;2022-09-28T08:58:41;7.68;;;4.93;;
1545;SDS011;766;51.502;9.752;2022-09-28T09:01:13;9.00;;;5.43;;
1545;SDS011;766;51.502;9.752;2022-09-28T09:03:48;7.43;;;5.28;;
1545;SDS011;766;51.502;9.752;2022-09-28T09:06:19;7.50;;;5.70;;
1545;SDS011;766;51.502;9.752;2022-09-28T09:08:57;6.40;;;5.00;;
1545;SDS011;766;51.502;9.752;2022-09-28T09:11:40;8.05;;;6.45;;
1545;SDS011;766;51.502;9.752;2022-09-28T09:14:23;10.18;;;6.53;;
1545;SDS011;766;51.502;9.752;2022-09-28T09:17:15;10.60;;;6.68;;
1545;SDS011;766;51.502;9.752;2022-09-28T09:19:51;7.85;;;6.35;;
1545;SDS011;766;51.502;9.752;2022-09-28T09:22:25;8.52;;;6.60;;
1545;SDS011;766;51.502;9.752;2022-09-28T09:25:02;10.02;;;6.22;;
1545;SDS011;766;51.502;9.752;2022-09-28T09:27:44;9.02;;;6.15;;
1545;SDS011;766;51.502;9.752;2022-09-28T09:30:29;7.38;;;6.40;;
1545;SDS011;766;51.502;9.752;2022-09-28T09:33:06;8.35;;;5.85;;
1545;SDS011;766;51.502;9.752;2022-09-28T09:36:00;7.45;;;5.50;;
1545;SDS011;766;51.502;9.752;2022-09-28T09:38:48;9.45;;;5.75;;
1545;SDS011;766;51.502;9.752;2022-09-28T09:41:26;7.15;;;4.85;;
1545;SDS011;766;51.502;9.752;2022-09-28T09:44:15;8.30;;;5.00;;
1545;SDS011;766;51.502;9.752;2022-09-28T09:46:56;5.32;;;3.55;;
1545;SDS011;766;51.502;9.752;2022-09-28T09:49:33;4.75;;;3.22;;
1545;SDS011;766;51.502;9.752;2022-09-28T09:52:05;4.43;;;2.05;;
1545;SDS011;766;51.502;9.752;2022-09-28T09:54:41;3.25;;;1.98;;
1545;SDS011;766;51.502;9.752;2022-09-28T09:57:19;5.00;;;2.28;;
1545;SDS011;766;51.502;9.752;2022-09-28T09:59:52;3.92;;;2.10;;
1545;SDS011;766;51.502;9.752;2022-09-28T10:02:24;4.85;;;2.30;;
1545;SDS011;766;51.502;9.752;2022-09-28T10:04:55;5.30;;;2.72;;
1545;SDS011;766;51.502;9.752;2022-09-28T10:07:28;4.20;;;2.80;;
1545;SDS011;766;51.502;9.752;2022-09-28T10:10:10;3.83;;;2.50;;
1545;SDS011;766;51.502;9.752;2022-09-28T10:12:43;4.30;;;2.60;;
1545;SDS011;766;51.502;9.752;2022-09-28T10:15:15;2.72;;;2.28;;
1545;SDS011;766;51.502;9.752;2022-09-28T10:17:50;4.53;;;2.20;;
1545;SDS011;766;51.502;9.752;2022-09-28T10:20:19;5.75;;;2.58;;
1545;SDS011;766;51.502;9.752;2022-09-28T10:22:49;2.65;;;2.45;;
1545;SDS011;766;51.502;9.752;2022-09-28T10:25:18;4.03;;;2.67;;
1545;SDS011;766;51.502;9.752;2022-09-28T10:27:47;4.60;;;2.72;;
1545;SDS011;766;51.502;9.752;2022-09-28T10:30:18;6.93;;;3.60;;
1545;SDS011;766;51.502;9.752;2022-09-28T10:32:50;3.63;;;2.83;;
1545;SDS011;766;51.502;9.752;2022-09-28T10:35:25;4.20;;;2.88;;
1545;SDS011;766;51.502;9.752;2022-09-28T10:37:56;5.57;;;3.60;;
1545;SDS011;766;51.502;9.752;2022-09-28T10:40:38;4.95;;;3.15;;
1545;SDS011;766;51.502;9.752;2022-09-28T10:43:17;4.88;;;2.50;;
1545;SDS011;766;51.502;9.752;2022-09-28T10:45:58;3.60;;;2.72;;
1545;SDS011;766;51.502;9.752;2022-09-28T10:48:30;4.35;;;2.53;;
1545;SDS011;766;51.502;9.752;2022-09-28T10:51:13;4.47;;;2.33;;
1545;SDS011;766;51.502;9.752;2022-09-28T10:53:45;3.47;;;2.10;;
1545;SDS011;766;51.502;9.752;2022-09-28T10:56:26;2.70;;;2.30;;
1545;SDS011;766;51.502;9.752;2022-09-28T10:58:57;2.90;;;2.10;;
1545;SDS011;766;51.502;9.752;2022-09-28T11:01:28;2.35;;;2.13;;
1545;SDS011;766;51.502;9.752;2022-09-28T11:04:01;3.30;;;2.35;;
1545;SDS011;766;51.502;9.752;2022-09-28T11:06:34;3.72;;;2.53;;
1545;SDS011;766;51.502;9.752;2022-09-28T11:09:08;3.95;;;2.60;;
1545;SDS011;766;51.502;9.752;2022-09-28T11:11:56;5.20;;;2.83;;
1545;SDS011;766;51.502;9.752;2022-09-28T11:14:26;4.75;;;2.22;;
1545;SDS011;766;51.502;9.752;2022-09-28T11:17:13;3.10;;;1.98;;
1545;SDS011;766;51.502;9.752;2022-09-28T11:19:45;3.75;;;2.35;;
1545;SDS011;766;51.502;9.752;2022-09-28T11:22:24;3.60;;;2.53;;
1545;SDS011;766;51.502;9.752;2022-09-28T11:27:56;4.95;;;2.30;;
1545;SDS011;766;51.502;9.752;2022-09-28T11:30:27;3.03;;;2.13;;
1545;SDS011;766;51.502;9.752;2022-09-28T11:33:00;3.53;;;2.40;;
1545;SDS011;766;51.502;9.752;2022-09-28T11:35:35;4.35;;;2.42;;
1545;SDS011;766;51.502;9.752;2022-09-28T11:38:25;3.28;;;1.83;;
1545;SDS011;766;51.502;9.752;2022-09-28T11:41:04;5.32;;;2.08;;
1545;SDS011;766;51.502;9.752;2022-09-28T11:43:54;4.22;;;2.05;;
1545;SDS011;766;51.502;9.752;2022-09-28T11:46:32;3.33;;;2.22;;
1545;SDS011;766;51.502;9.752;2022-09-28T11:49:14;5.57;;;2.28;;
1545;SDS011;766;51.502;9.752;2022-09-28T11:51:55;2.35;;;1.70;;
1545;SDS011;766;51.502;9.752;2022-09-28T11:54:28;1.92;;;1.73;;
1545;SDS011;766;51.502;9.752;2022-09-28T11:57:02;2.85;;;1.80;;
1545;SDS011;766;51.502;9.752;2022-09-28T11:59:34;2.80;;;1.70;;
1545;SDS011;766;51.502;9.752;2022-09-28T12:02:09;2.08;;;1.77;;
1545;SDS011;766;51.502;9.752;2022-09-28T12:04:51;1.70;;;1.55;;
1545;SDS011;766;51.502;9.752;2022-09-28T12:07:25;2.80;;;1.75;;
1545;SDS011;766;51.502;9.752;2022-09-28T12:10:02;4.03;;;1.95;;
1545;SDS011;766;51.502;9.752;2022-09-28T12:12:39;2.30;;;1.70;;
1545;SDS011;766;51.502;9.752;2022-09-28T12:15:14;1.63;;;1.42;;
1545;SDS011;766;51.502;9.752;2022-09-28T12:17:46;2.58;;;2.00;;
1545;SDS011;766;51.502;9.752;2022-09-28T12:20:18;1.90;;;1.52;;
1545;SDS011;766;51.502;9.752;2022-09-28T12:22:54;2.53;;;1.70;;
1545;SDS011;766;51.502;9.752;2022-09-28T12:25:33;4.55;;;2.10;;
1545;SDS011;766;51.502;9.752;2022-09-28T12:28:17;3.55;;;1.65;;
1545;SDS011;766;51.502;9.752;2022-09-28T12:30:51;3.70;;;1.95;;
1545;SDS011;766;51.502;9.752;2022-09-28T12:33:21;4.55;;;2.10;;
1545;SDS011;766;51.502;9.752;2022-09-28T12:35:54;6.55;;;1.83;;
1545;SDS011;766;51.502;9.752;2022-09-28T12:38:45;1.83;;;1.67;;
1545;SDS011;766;51.502;9.752;2022-09-28T12:41:50;1.42;;;1.00;;
1545;SDS011;766;51.502;9.752;2022-09-28T12:44:41;3.05;;;1.42;;
1545;SDS011;766;51.502;9.752;2022-09-28T12:50:35;0.70;;;0.68;;
1545;SDS011;766;51.502;9.752;2022-09-28T12:53:34;1.20;;;1.10;;
1545;SDS011;766;51.502;9.752;2022-09-28T12:56:20;1.13;;;1.02;;
1545;SDS011;766;51.502;9.752;2022-09-28T12:58:58;2.45;;;1.00;;
1545;SDS011;766;51.502;9.752;2022-09-28T13:01:38;3.33;;;1.33;;
1545;SDS011;766;51.502;9.752;2022-09-28T13:04:32;2.75;;;1.50;;
1545;SDS011;766;51.502;9.752;2022-09-28T13:07:15;2.05;;;1.20;;
1545;SDS011;766;51.502;9.752;2022-09-28T13:09:51;1.20;;;1.10;;
1545;SDS011;766;51.502;9.752;2022-09-28T13:12:33;1.85;;;1.10;;
1545;SDS011;766;51.502;9.752;2022-09-28T13:18:10;1.02;;;0.93;;
1545;SDS011;766;51.502;9.752;2022-09-28T13:21:02;3.15;;;1.10;;
1545;SDS011;766;51.502;9.752;2022-09-28T13:23:37;1.30;;;1.20;;
1545;SDS011;766;51.502;9.752;2022-09-28T13:26:11;2.95;;;1.20;;
1545;SDS011;766;51.502;9.752;2022-09-28T13:28:47;1.20;;;1.10;;
1545;SDS011;766;51.502;9.752;2022-09-28T13:31:18;3.63;;;1.20;;
1545;SDS011;766;51.502;9.752;2022-09-28T13:33:54;1.55;;;1.20;;
1545;SDS011;766;51.502;9.752;2022-09-28T13:36:34;1.88;;;1.33;;
1545;SDS011;766;51.502;9.752;2022-09-28T13:42:05;3.58;;;1.80;;
1545;SDS011;766;51.502;9.752;2022-09-28T13:44:46;1.85;;;1.65;;
1545;SDS011;766;51.502;9.752;2022-09-28T13:47:40;3.42;;;2.00;;
1545;SDS011;766;51.502;9.752;2022-09-28T13:50:25;5.63;;;1.70;;
1545;SDS011;766;51.502;9.752;2022-09-28T13:53:01;3.00;;;1.90;;
1545;SDS011;766;51.502;9.752;2022-09-28T13:55:47;2.90;;;1.90;;
1545;SDS011;766;51.502;9.752;2022-09-28T13:58:22;2.13;;;1.77;;
1545;SDS011;766;51.502;9.752;2022-09-28T14:00:55;3.47;;;2.15;;
1545;SDS011;766;51.502;9.752;2022-09-28T14:03:40;2.60;;;2.40;;
1545;SDS011;766;51.502;9.752;2022-09-28T14:06:20;3.92;;;1.80;;
1545;SDS011;766;51.502;9.752;2022-09-28T14:09:08;1.95;;;1.52;;
1545;SDS011;766;51.502;9.752;2022-09-28T14:14:56;3.00;;;1.27;;
1545;SDS011;766;51.502;9.752;2022-09-28T14:20:45;2.10;;;1.38;;
1545;SDS011;766;51.502;9.752;2022-09-28T14:29:37;1.10;;;0.90;;
1545;SDS011;766;51.502;9.752;2022-09-28T14:32:20;1.30;;;0.80;;
1545;SDS011;766;51.502;9.752;2022-09-28T14:34:55;3.13;;;2.00;;
1545;SDS011;766;51.502;9.752;2022-09-28T14:37:26;6.82;;;1.88;;
1545;SDS011;766;51.502;9.752;2022-09-28T14:40:16;11.45;;;4.72;;
1545;SDS011;766;51.502;9.752;2022-09-28T14:43:20;11.02;;;5.65;;
1545;SDS011;766;51.502;9.752;2022-09-28T14:49:01;5.57;;;3.13;;
1545;SDS011;766;51.502;9.752;2022-09-28T14:54:38;3.05;;;2.38;;
1545;SDS011;766;51.502;9.752;2022-09-28T14:57:14;2.25;;;1.98;;
1545;SDS011;766;51.502;9.752;2022-09-28T14:59:44;4.55;;;2.45;;
1545;SDS011;766;51.502;9.752;2022-09-28T15:02:18;2.33;;;2.00;;
1545;SDS011;766;51.502;9.752;2022-09-28T15:04:51;2.30;;;1.60;;
1545;SDS011;766;51.502;9.752;2022-09-28T15:07:22;3.08;;;1.48;;
1545;SDS011;766;51.502;9.752;2022-09-28T15:09:55;2.28;;;1.30;;
1545;SDS011;766;51.502;9.752;2022-09-28T15:12:25;2.60;;;1.52;;
1545;SDS011;766;51.502;9.752;2022-09-28T15:14:56;2.42;;;1.42;;
1545;SDS011;766;51.502;9.752;2022-09-28T15:17:27;3.85;;;1.60;;
1545;SDS011;766;51.502;9.752;2022-09-28T15:20:15;2.33;;;1.70;;
1545;SDS011;766;51.502;9.752;2022-09-28T15:22:50;2.65;;;1.90;;
1545;SDS011;766;51.502;9.752;2022-09-28T15:25:24;1.90;;;1.35;;
1545;SDS011;766;51.502;9.752;2022-09-28T15:27:54;4.10;;;1.98;;
1545;SDS011;766;51.502;9.752;2022-09-28T15:30:26;2.65;;;1.55;;
1545;SDS011;766;51.502;9.752;2022-09-28T15:32:57;2.83;;;1.58;;
1545;SDS011;766;51.502;9.752;2022-09-28T15:35:41;2.78;;;1.40;;
1545;SDS011;766;51.502;9.752;2022-09-28T15:38:09;4.75;;;1.35;;
1545;SDS011;766;51.502;9.752;2022-09-28T15:40:44;2.35;;;1.73;;
1545;SDS011;766;51.502;9.752;2022-09-28T15:43:20;1.83;;;1.50;;
1545;SDS011;766;51.502;9.752;2022-09-28T15:45:54;1.80;;;1.52;;
1545;SDS011;766;51.502;9.752;2022-09-28T15:48:29;3.60;;;1.33;;
1545;SDS011;766;51.502;9.752;2022-09-28T15:51:04;1.48;;;1.00;;
1545;SDS011;766;51.502;9.752;2022-09-28T15:53:40;1.20;;;1.10;;
1545;SDS011;766;51.502;9.752;2022-09-28T15:56:13;1.92;;;1.48;;
1545;SDS011;766;51.502;9.752;2022-09-28T15:58:42;2.78;;;1.98;;
1545;SDS011;766;51.502;9.752;2022-09-28T16:07:03;3.45;;;2.42;;
1545;SDS011;766;51.502;9.752;2022-09-28T16:09:57;3.38;;;2.38;;
1545;SDS011;766;51.502;9.752;2022-09-28T16:12:31;3.22;;;2.38;;
1545;SDS011;766;51.502;9.752;2022-09-28T16:15:11;3.30;;;2.20;;
1545;SDS011;766;51.502;9.752;2022-09-28T16:17:49;3.30;;;2.40;;
1545;SDS011;766;51.502;9.752;2022-09-28T16:20:22;5.20;;;2.50;;
1545;SDS011;766;51.502;9.752;2022-09-28T16:22:55;4.03;;;2.63;;
1545;SDS011;766;51.502;9.752;2022-09-28T16:25:28;3.58;;;2.55;;
1545;SDS011;766;51.502;9.752;2022-09-28T16:28:01;4.95;;;2.75;;
1545;SDS011;766;51.502;9.752;2022-09-28T16:30:30;4.00;;;2.45;;
1545;SDS011;766;51.502;9.752;2022-09-28T16:33:02;4.30;;;2.67;;
1545;SDS011;766;51.502;9.752;2022-09-28T16:35:48;4.00;;;2.42;;
1545;SDS011;766;51.502;9.752;2022-09-28T16:38:17;4.95;;;2.45;;
1545;SDS011;766;51.502;9.752;2022-09-28T16:40:47;4.10;;;2.30;;
1545;SDS011;766;51.502;9.752;2022-09-28T16:43:20;3.40;;;2.20;;
1545;SDS011;766;51.502;9.752;2022-09-28T16:45:52;4.38;;;2.00;;
1545;SDS011;766;51.502;9.752;2022-09-28T16:48:24;5.38;;;2.60;;
1545;SDS011;766;51.502;9.752;2022-09-28T16:50:55;2.60;;;2.40;;
1545;SDS011;766;51.502;9.752;2022-09-28T16:53:24;5.68;;;2.83;;
1545;SDS011;766;51.502;9.752;2022-09-28T16:56:10;8.50;;;5.05;;
1545;SDS011;766;51.502;9.752;2022-09-28T16:58:41;5.50;;;4.20;;
1545;SDS011;766;51.502;9.752;2022-09-28T17:01:13;7.28;;;4.40;;
1545;SDS011;766;51.502;9.752;2022-09-28T17:03:42;11.73;;;7.28;;
1545;SDS011;766;51.502;9.752;2022-09-28T17:06:12;17.48;;;9.30;;
1545;SDS011;766;51.502;9.752;2022-09-28T17:08:42;12.20;;;7.82;;
1545;SDS011;766;51.502;9.752;2022-09-28T17:11:11;18.25;;;9.77;;
1545;SDS011;766;51.502;9.752;2022-09-28T17:13:50;17.83;;;9.40;;
1545;SDS011;766;51.502;9.752;2022-09-28T17:16:22;10.32;;;6.65;;
1545;SDS011;766;51.502;9.752;2022-09-28T17:19:17;9.18;;;5.97;;
1545;SDS011;766;51.502;9.752;2022-09-28T17:21:47;6.65;;;5.13;;
1545;SDS011;766;51.502;9.752;2022-09-28T17:24:16;7.10;;;5.03;;
1545;SDS011;766;51.502;9.752;2022-09-28T17:26:44;6.68;;;4.35;;
1545;SDS011;766;51.502;9.752;2022-09-28T17:29:16;7.25;;;4.50;;
1545;SDS011;766;51.502;9.752;2022-09-28T17:31:45;7.97;;;4.70;;
1545;SDS011;766;51.502;9.752;2022-09-28T17:34:15;6.38;;;4.90;;
1545;SDS011;766;51.502;9.752;2022-09-28T17:36:43;6.25;;;4.10;;
1545;SDS011;766;51.502;9.752;2022-09-28T17:39:12;6.97;;;3.63;;
1545;SDS011;766;51.502;9.752;2022-09-28T17:41:42;3.70;;;3.33;;
1545;SDS011;766;51.502;9.752;2022-09-28T17:44:10;4.75;;;2.40;;
1545;SDS011;766;51.502;9.752;2022-09-28T17:46:43;3.88;;;2.50;;
1545;SDS011;766;51.502;9.752;2022-09-28T17:49:14;4.05;;;2.35;;
1545;SDS011;766;51.502;9.752;2022-09-28T17:51:43;4.32;;;2.45;;
1545;SDS011;766;51.502;9.752;2022-09-28T17:54:12;4.65;;;3.08;;
